createdAt,value
2022-11-05T00:01:15.442Z,85.28
2022-11-05T00:04:29.805Z,85.64
2022-11-05T00:07:29.418Z,85.74
2022-11-05T00:10:07.388Z,86.24
2022-11-05T00:12:56.153Z,86.02
2022-11-05T00:15:43.003Z,85.65
2022-11-05T00:18:11.728Z,85.47
2022-11-05T00:20:40.389Z,85.47
2022-11-05T00:23:27.202Z,85.49
2022-11-05T00:26:02.894Z,85.45
2022-11-05T00:28:33.072Z,85.21
2022-11-05T00:31:21.913Z,85.17
2022-11-05T00:33:50.486Z,85.03
2022-11-05T00:36:19.715Z,84.98
2022-11-05T00:38:48.350Z,84.90
2022-11-05T00:41:16.921Z,84.90
2022-11-05T00:44:03.956Z,84.79
2022-11-05T00:46:32.494Z,84.72
2022-11-05T00:49:19.554Z,84.94
2022-11-05T00:51:48.147Z,84.98
2022-11-05T00:54:16.885Z,84.97
2022-11-05T00:56:45.432Z,84.95
2022-11-05T00:59:14.060Z,85.04
2022-11-05T01:01:42.693Z,84.77
2022-11-05T01:04:11.324Z,85.60
2022-11-05T01:06:39.883Z,85.61
2022-11-05T01:09:08.497Z,85.96
2022-11-05T01:11:37.463Z,85.85
2022-11-05T01:14:18.414Z,85.84
2022-11-05T01:16:47.028Z,86.75
2022-11-05T01:19:15.722Z,86.89
2022-11-05T01:21:44.363Z,87.09
2022-11-05T01:24:13.008Z,86.81
2022-11-05T01:26:41.568Z,86.79
2022-11-05T01:29:11.373Z,86.64
2022-11-05T01:31:39.953Z,86.26
2022-11-05T01:34:08.551Z,86.22
2022-11-05T01:36:37.178Z,86.06
2022-11-05T01:39:06.116Z,86.66
2022-11-05T01:41:34.750Z,86.66
2022-11-05T01:44:03.608Z,86.95
2022-11-05T01:46:38.856Z,86.91
2022-11-05T01:49:28.480Z,86.46
2022-11-05T01:52:00.096Z,86.62
2022-11-05T01:54:32.630Z,86.83
2022-11-05T01:57:08.211Z,86.70
2022-11-05T01:59:46.238Z,86.82
2022-11-05T02:02:15.003Z,86.75
2022-11-05T02:04:58.925Z,86.74
2022-11-05T02:07:29.148Z,86.69
2022-11-05T02:10:10.215Z,86.86
2022-11-05T02:12:42.327Z,86.85
2022-11-05T02:15:14.105Z,86.70
2022-11-05T02:18:06.422Z,86.70
2022-11-05T02:20:52.329Z,87.07
2022-11-05T02:23:51.698Z,86.93
2022-11-05T02:26:57.118Z,86.66
2022-11-05T02:29:56.608Z,86.36
2022-11-05T02:32:56.747Z,86.45
2022-11-05T02:35:37.223Z,86.42
2022-11-05T02:38:43.349Z,85.79
2022-11-05T02:41:48.061Z,85.84
2022-11-05T02:44:41.650Z,86.26
2022-11-05T02:47:50.451Z,86.47
2022-11-05T02:50:23.319Z,86.01
2022-11-05T02:52:58.601Z,85.94
2022-11-05T02:55:35.057Z,85.94
2022-11-05T02:58:06.064Z,85.92
2022-11-05T03:01:00.635Z,85.78
2022-11-05T03:03:40.621Z,85.60
2022-11-05T03:06:36.238Z,85.66
2022-11-05T03:09:25.800Z,85.80
2022-11-05T03:12:10.646Z,85.24
2022-11-05T03:15:22.008Z,85.73
2022-11-05T03:18:11.806Z,85.91
2022-11-05T03:20:46.794Z,85.89
2022-11-05T03:23:42.852Z,85.41
2022-11-05T03:26:35.934Z,86.21
2022-11-05T03:29:19.601Z,86.34
2022-11-05T03:31:50.686Z,86.17
2022-11-05T03:34:25.114Z,86.24
2022-11-05T03:36:57.331Z,86.21
2022-11-05T03:39:35.694Z,85.89
2022-11-05T03:42:08.785Z,85.82
2022-11-05T03:44:39.255Z,86.36
2022-11-05T03:47:15.642Z,85.93
2022-11-05T03:50:04.990Z,85.82
2022-11-05T03:52:44.270Z,85.87
2022-11-05T03:55:13.109Z,86.13
2022-11-05T03:57:47.393Z,86.38
2022-11-05T04:00:17.117Z,86.27
2022-11-05T04:02:45.861Z,86.04
2022-11-05T04:05:14.613Z,86.47
2022-11-05T04:08:03.633Z,86.60
2022-11-05T04:10:50.363Z,86.54
2022-11-05T04:13:24.882Z,86.75
2022-11-05T04:16:14.406Z,87.06
2022-11-05T04:18:43.768Z,86.85
2022-11-05T04:21:31.061Z,86.77
2022-11-05T04:24:11.355Z,86.38
2022-11-05T04:26:43.991Z,86.58
2022-11-05T04:29:30.855Z,86.44
2022-11-05T04:31:59.428Z,86.38
2022-11-05T04:34:28.041Z,86.11
2022-11-05T04:36:56.607Z,86.59
2022-11-05T04:39:25.201Z,86.23
2022-11-05T04:41:53.751Z,86.41
2022-11-05T04:44:22.361Z,86.35
2022-11-05T04:46:51.025Z,86.47
2022-11-05T04:49:19.553Z,86.62
2022-11-05T04:51:48.186Z,86.10
2022-11-05T04:54:16.801Z,86.10
2022-11-05T04:56:45.382Z,85.90
2022-11-05T04:59:14.009Z,85.55
2022-11-05T05:01:42.680Z,85.96
2022-11-05T05:04:11.449Z,86.78
2022-11-05T05:06:39.974Z,86.61
2022-11-05T05:09:08.588Z,86.72
2022-11-05T05:11:37.319Z,86.51
2022-11-05T05:14:05.992Z,86.97
2022-11-05T05:16:34.605Z,87.07
2022-11-05T05:19:03.284Z,86.46
2022-11-05T05:21:41.151Z,86.92
2022-11-05T05:24:19.750Z,86.81
2022-11-05T05:26:50.312Z,86.60
2022-11-05T05:29:19.128Z,86.87
2022-11-05T05:31:47.718Z,86.80
2022-11-05T05:34:16.252Z,86.80
2022-11-05T05:36:44.906Z,87.13
2022-11-05T05:39:15.974Z,86.86
2022-11-05T05:41:44.532Z,86.70
2022-11-05T05:44:13.114Z,86.54
2022-11-05T05:46:41.824Z,86.33
2022-11-05T05:49:12.596Z,86.34
2022-11-05T05:51:41.471Z,86.10
2022-11-05T05:54:11.823Z,86.00
2022-11-05T05:56:40.441Z,86.00
2022-11-05T05:59:09.111Z,85.90
2022-11-05T06:01:38.283Z,85.81
2022-11-05T06:04:07.074Z,85.47
2022-11-05T06:06:35.608Z,85.30
2022-11-05T06:09:04.382Z,84.94
2022-11-05T06:11:33.098Z,84.63
2022-11-05T06:14:02.382Z,84.42
2022-11-05T06:16:36.041Z,84.26
2022-11-05T06:19:05.770Z,84.04
2022-11-05T06:21:34.726Z,84.12
2022-11-05T06:24:04.130Z,83.95
2022-11-05T06:26:32.750Z,84.04
2022-11-05T06:29:01.374Z,84.15
2022-11-05T06:31:29.944Z,84.36
2022-11-05T06:33:58.595Z,84.38
2022-11-05T06:36:27.238Z,83.97
2022-11-05T06:38:55.906Z,83.86
2022-11-05T06:41:24.517Z,84.15
2022-11-05T06:43:53.141Z,84.35
2022-11-05T06:46:21.743Z,84.19
2022-11-05T06:48:51.238Z,83.39
2022-11-05T06:51:19.919Z,83.88
2022-11-05T06:53:48.613Z,83.98
2022-11-05T06:56:17.419Z,83.76
2022-11-05T06:58:46.321Z,83.45
2022-11-05T07:01:15.032Z,83.50
2022-11-05T07:03:45.244Z,83.25
2022-11-05T07:06:13.965Z,82.97
2022-11-05T07:08:42.721Z,82.65
2022-11-05T07:11:11.372Z,83.04
2022-11-05T07:13:40.547Z,81.82
2022-11-05T07:16:09.570Z,81.49
2022-11-05T07:18:38.325Z,81.62
2022-11-05T07:21:07.110Z,81.73
2022-11-05T07:23:35.918Z,81.52
2022-11-05T07:26:05.064Z,81.68
2022-11-05T07:28:33.762Z,82.14
2022-11-05T07:31:02.779Z,82.31
2022-11-05T07:33:36.349Z,82.41
2022-11-05T07:36:06.208Z,81.95
2022-11-05T07:38:35.211Z,81.93
2022-11-05T07:41:04.484Z,82.07
2022-11-05T07:43:33.346Z,82.45
2022-11-05T07:46:02.127Z,82.14
2022-11-05T07:48:30.925Z,81.87
2022-11-05T07:50:59.719Z,81.57
2022-11-05T07:53:28.557Z,81.20
2022-11-05T07:55:59.072Z,81.63
2022-11-05T07:58:27.876Z,81.69
2022-11-05T08:00:58.273Z,81.35
2022-11-05T08:03:27.167Z,81.43
2022-11-05T08:05:56.011Z,81.27
2022-11-05T08:08:24.811Z,81.05
2022-11-05T08:10:53.755Z,80.76
2022-11-05T08:13:22.736Z,80.77
2022-11-05T08:15:51.475Z,81.04
2022-11-05T08:18:20.181Z,80.69
2022-11-05T08:20:49.093Z,80.54
2022-11-05T08:23:17.878Z,80.37
2022-11-05T08:25:46.659Z,80.12
2022-11-05T08:28:15.476Z,79.93
2022-11-05T08:30:44.082Z,80.03
2022-11-05T08:33:14.746Z,79.72
2022-11-05T08:35:43.854Z,79.57
2022-11-05T08:38:14.804Z,79.75
2022-11-05T08:40:47.140Z,79.57
2022-11-05T08:43:16.520Z,79.09
2022-11-05T08:45:45.289Z,78.96
2022-11-05T08:48:17.661Z,78.89
2022-11-05T08:50:49.006Z,78.46
2022-11-05T08:53:18.137Z,78.41
2022-11-05T08:55:47.966Z,78.44
2022-11-05T08:58:17.555Z,78.51
2022-11-05T09:00:49.650Z,78.27
2022-11-05T09:03:18.850Z,77.67
2022-11-05T09:05:47.674Z,77.72
2022-11-05T09:08:19.435Z,77.42
2022-11-05T09:10:50.037Z,76.95
2022-11-05T09:13:20.095Z,76.45
2022-11-05T09:15:50.463Z,76.82
2022-11-05T09:18:20.519Z,76.50
2022-11-05T09:20:49.261Z,76.89
2022-11-05T09:23:18.135Z,76.71
2022-11-05T09:25:46.899Z,76.31
2022-11-05T09:28:20.507Z,76.19
2022-11-05T09:30:52.110Z,75.78
2022-11-05T09:33:25.745Z,75.73
2022-11-05T09:35:54.684Z,75.70
2022-11-05T09:38:23.349Z,75.55
2022-11-05T09:41:13.051Z,75.24
2022-11-05T09:43:50.964Z,74.74
2022-11-05T09:46:25.224Z,74.98
2022-11-05T09:49:03.473Z,74.86
2022-11-05T09:51:32.954Z,74.22
2022-11-05T09:54:05.714Z,74.20
2022-11-05T09:56:37.587Z,73.64
2022-11-05T09:59:24.816Z,73.32
2022-11-05T10:02:11.789Z,72.98
2022-11-05T10:04:43.734Z,72.68
2022-11-05T10:07:19.393Z,72.44
2022-11-05T10:09:54.089Z,72.16
2022-11-05T10:12:48.328Z,72.15
2022-11-05T10:15:25.013Z,72.12
2022-11-05T10:18:12.862Z,72.00
2022-11-05T10:20:43.946Z,71.84
2022-11-05T10:23:17.619Z,71.58
2022-11-05T10:25:53.152Z,71.97
2022-11-05T10:28:26.183Z,71.79
2022-11-05T10:31:12.197Z,71.73
2022-11-05T10:34:03.722Z,71.45
2022-11-05T10:36:36.499Z,71.08
2022-11-05T10:39:19.479Z,71.02
2022-11-05T10:42:25.048Z,71.01
2022-11-05T10:45:12.809Z,70.91
2022-11-05T10:48:22.886Z,70.43
2022-11-05T10:50:51.653Z,70.51
2022-11-05T10:53:39.313Z,70.54
2022-11-05T10:56:39.025Z,70.43
2022-11-05T10:59:30.409Z,70.42
2022-11-05T11:02:09.943Z,70.39
2022-11-05T11:04:38.751Z,70.19
2022-11-05T11:07:22.206Z,69.92
2022-11-05T11:09:51.914Z,70.09
2022-11-05T11:12:41.102Z,69.77
2022-11-05T11:15:24.383Z,69.54
2022-11-05T11:17:53.581Z,69.24
2022-11-05T11:20:32.149Z,68.96
2022-11-05T11:23:15.489Z,68.90
2022-11-05T11:26:02.076Z,68.78
2022-11-05T11:29:21.492Z,68.62
2022-11-05T11:31:58.275Z,68.60
2022-11-05T11:34:34.858Z,68.66
2022-11-05T11:37:28.924Z,68.44
2022-11-05T11:40:04.387Z,68.28
2022-11-05T11:42:39.550Z,68.28
2022-11-05T11:45:38.338Z,67.97
2022-11-05T11:48:14.708Z,67.74
2022-11-05T11:50:46.844Z,67.72
2022-11-05T11:53:21.722Z,67.59
2022-11-05T11:56:01.985Z,67.11
2022-11-05T11:58:58.030Z,66.69
2022-11-05T12:02:03.945Z,66.59
2022-11-05T12:05:04.831Z,66.45
2022-11-05T12:07:58.385Z,66.35
2022-11-05T12:10:41.969Z,65.98
2022-11-05T12:13:20.677Z,65.70
2022-11-05T12:16:06.706Z,65.22
2022-11-05T12:18:55.272Z,65.00
2022-11-05T12:21:51.502Z,65.22
2022-11-05T12:24:40.853Z,64.85
2022-11-05T12:27:18.711Z,64.83
2022-11-05T12:30:16.531Z,64.87
2022-11-05T12:33:03.423Z,64.88
2022-11-05T12:35:48.979Z,64.70
2022-11-05T12:38:57.680Z,64.65
2022-11-05T12:41:39.083Z,64.22
2022-11-05T12:44:46.533Z,64.43
2022-11-05T12:47:57.753Z,64.31
2022-11-05T12:50:53.734Z,63.93
2022-11-05T12:53:56.486Z,64.00
2022-11-05T12:56:36.261Z,63.73
2022-11-05T12:59:32.124Z,63.33
2022-11-05T13:02:29.066Z,63.01
2022-11-05T13:05:35.305Z,63.06
2022-11-05T13:08:03.984Z,62.84
2022-11-05T13:11:21.951Z,62.75
2022-11-05T13:14:02.874Z,62.63
2022-11-05T13:16:49.850Z,62.81
2022-11-05T13:19:35.091Z,62.40
2022-11-05T13:23:01.000Z,62.12
2022-11-05T13:25:35.002Z,61.83
2022-11-05T13:28:28.638Z,61.42
2022-11-05T13:31:01.697Z,60.77
2022-11-05T13:33:42.362Z,60.13
2022-11-05T13:36:45.834Z,60.01
2022-11-05T13:39:26.040Z,60.00
2022-11-05T13:42:05.397Z,59.44
2022-11-05T13:44:51.947Z,59.19
2022-11-05T13:48:08.472Z,59.18
2022-11-05T13:51:23.552Z,58.86
2022-11-05T13:54:13.054Z,58.85
2022-11-05T13:57:04.908Z,58.81
2022-11-05T13:59:51.745Z,58.18
2022-11-05T14:02:35.218Z,58.02
2022-11-05T14:05:06.801Z,57.77
2022-11-05T14:07:45.798Z,57.72
2022-11-05T14:10:37.791Z,57.53
2022-11-05T14:13:17.362Z,57.65
2022-11-05T14:16:11.151Z,57.76
2022-11-05T14:19:06.590Z,57.73
2022-11-05T14:21:49.398Z,58.09
2022-11-05T14:24:24.307Z,57.98
2022-11-05T14:27:01.896Z,57.66
2022-11-05T14:29:43.922Z,57.67
2022-11-05T14:32:21.240Z,57.69
2022-11-05T14:35:36.460Z,57.67
2022-11-05T14:38:17.943Z,57.28
2022-11-05T14:40:47.800Z,57.15
2022-11-05T14:43:26.226Z,57.20
2022-11-05T14:46:01.002Z,57.54
2022-11-05T14:48:41.288Z,57.38
2022-11-05T14:51:21.923Z,56.75
2022-11-05T14:53:51.635Z,56.77
2022-11-05T14:56:20.429Z,56.85
2022-11-05T14:58:49.137Z,56.41
2022-11-05T15:01:35.874Z,56.18
2022-11-05T15:04:40.589Z,56.02
2022-11-05T15:07:09.198Z,55.73
2022-11-05T15:09:59.271Z,55.23
2022-11-05T15:12:46.019Z,55.08
2022-11-05T15:15:44.664Z,54.94
2022-11-05T15:18:34.176Z,54.95
2022-11-05T15:21:05.121Z,54.52
2022-11-05T15:23:42.738Z,54.28
2022-11-05T15:26:50.581Z,54.55
2022-11-05T15:29:24.931Z,53.62
2022-11-05T15:31:54.102Z,53.12
2022-11-05T15:34:30.136Z,52.80
2022-11-05T15:37:20.486Z,52.58
2022-11-05T15:39:52.565Z,52.25
2022-11-05T15:42:27.450Z,52.81
2022-11-05T15:44:59.117Z,52.82
2022-11-05T15:47:34.465Z,52.63
2022-11-05T15:50:21.365Z,52.88
2022-11-05T15:52:54.075Z,52.35
2022-11-05T15:55:25.990Z,52.41
2022-11-05T15:58:06.516Z,52.19
2022-11-05T16:00:37.317Z,51.69
2022-11-05T16:03:17.802Z,51.90
2022-11-05T16:05:48.685Z,52.22
2022-11-05T16:08:30.599Z,52.01
2022-11-05T16:11:01.223Z,52.51
2022-11-05T16:13:37.115Z,52.30
2022-11-05T16:16:34.061Z,52.06
2022-11-05T16:19:40.169Z,52.23
2022-11-05T16:22:09.582Z,52.58
2022-11-05T16:24:38.540Z,52.70
2022-11-05T16:27:18.976Z,52.79
2022-11-05T16:29:55.749Z,52.85
2022-11-05T16:32:31.193Z,53.00
2022-11-05T16:35:03.755Z,53.21
2022-11-05T16:37:41.243Z,53.50
2022-11-05T16:40:21.381Z,53.75
2022-11-05T16:42:53.125Z,54.09
2022-11-05T16:45:25.144Z,54.03
2022-11-05T16:47:53.962Z,54.23
2022-11-05T16:50:32.606Z,54.53
2022-11-05T16:53:01.269Z,54.81
2022-11-05T16:55:33.128Z,55.16
2022-11-05T16:58:02.375Z,55.25
2022-11-05T17:00:31.232Z,55.38
2022-11-05T17:03:00.160Z,55.52
2022-11-05T17:05:31.857Z,55.72
2022-11-05T17:08:01.777Z,56.13
2022-11-05T17:10:30.934Z,56.51
2022-11-05T17:13:00.529Z,56.69
2022-11-05T17:15:33.741Z,56.81
2022-11-05T17:18:03.609Z,57.35
2022-11-05T17:20:51.755Z,57.64
2022-11-05T17:23:24.120Z,58.65
2022-11-05T17:26:02.187Z,58.97
2022-11-05T17:28:31.365Z,59.24
2022-11-05T17:31:05.561Z,59.59
2022-11-05T17:33:35.173Z,60.23
2022-11-05T17:36:15.985Z,60.75
2022-11-05T17:38:45.185Z,61.04
2022-11-05T17:41:17.228Z,61.57
2022-11-05T17:43:46.838Z,62.06
2022-11-05T17:46:17.143Z,62.59
2022-11-05T17:48:46.654Z,62.93
2022-11-05T17:51:17.354Z,63.32
2022-11-05T17:53:49.385Z,63.76
2022-11-05T17:56:32.124Z,64.30
2022-11-05T17:59:03.669Z,64.95
2022-11-05T18:01:36.058Z,65.11
2022-11-05T18:04:09.047Z,65.62
2022-11-05T18:06:39.721Z,65.90
2022-11-05T18:09:10.144Z,66.52
2022-11-05T18:11:39.835Z,67.15
2022-11-05T18:14:08.863Z,67.54
2022-11-05T18:16:37.923Z,67.64
2022-11-05T18:19:06.655Z,68.13
2022-11-05T18:21:35.270Z,68.64
2022-11-05T18:24:07.847Z,68.91
2022-11-05T18:26:36.463Z,69.16
2022-11-05T18:29:06.397Z,69.56
2022-11-05T18:31:35.101Z,69.94
2022-11-05T18:34:04.088Z,70.26
2022-11-05T18:36:33.354Z,70.46
2022-11-05T18:39:04.239Z,70.55
2022-11-05T18:41:33.437Z,71.11
2022-11-05T18:44:03.526Z,71.52
2022-11-05T18:46:57.074Z,72.00
2022-11-05T18:49:22.776Z,72.20
2022-11-05T18:51:51.700Z,72.45
2022-11-05T18:54:20.501Z,72.67
2022-11-05T18:56:49.452Z,73.24
2022-11-05T18:59:36.843Z,72.90
2022-11-05T19:02:08.781Z,73.18
2022-11-05T19:04:38.201Z,73.62
2022-11-05T19:07:09.500Z,73.87
2022-11-05T19:09:39.682Z,73.81
2022-11-05T19:12:08.470Z,74.01
2022-11-05T19:14:37.471Z,73.93
2022-11-05T19:17:06.150Z,73.86
2022-11-05T19:19:34.737Z,74.02
2022-11-05T19:22:04.003Z,74.44
2022-11-05T19:24:32.819Z,74.56
2022-11-05T19:27:01.476Z,74.57
2022-11-05T19:29:30.052Z,75.34
2022-11-05T19:31:58.646Z,75.34
2022-11-05T19:34:27.477Z,75.48
2022-11-05T19:36:56.263Z,75.50
2022-11-05T19:39:24.919Z,75.87
2022-11-05T19:41:57.628Z,76.00
2022-11-05T19:44:30.729Z,76.12
2022-11-05T19:46:59.479Z,76.32
2022-11-05T19:49:31.351Z,77.04
2022-11-05T19:52:00.187Z,77.20
2022-11-05T19:54:29.049Z,77.16
2022-11-05T19:56:57.684Z,77.54
2022-11-05T19:59:26.366Z,77.91
2022-11-05T20:01:55.362Z,77.59
2022-11-05T20:04:24.172Z,77.79
2022-11-05T20:06:52.861Z,77.67
2022-11-05T20:09:23.160Z,77.46
2022-11-05T20:11:54.770Z,77.29
2022-11-05T20:14:25.503Z,77.22
2022-11-05T20:16:54.398Z,76.96
2022-11-05T20:19:23.540Z,77.23
2022-11-05T20:21:52.678Z,76.95
2022-11-05T20:24:25.084Z,77.01
2022-11-05T20:26:55.046Z,76.80
2022-11-05T20:29:30.546Z,77.06
2022-11-05T20:32:04.497Z,77.10
2022-11-05T20:34:35.122Z,77.06
2022-11-05T20:37:05.565Z,77.06
2022-11-05T20:43:05.826Z,77.56
2022-11-05T20:45:34.475Z,77.55
2022-11-05T20:48:03.394Z,77.72
2022-11-05T20:50:31.977Z,78.08
2022-11-05T20:53:01.152Z,77.93
2022-11-05T20:55:29.910Z,77.91
2022-11-05T20:57:58.601Z,78.06
2022-11-05T21:00:27.237Z,78.21
2022-11-05T21:02:56.066Z,77.99
2022-11-05T21:05:24.845Z,77.91
2022-11-05T21:07:53.482Z,77.99
2022-11-05T21:10:23.275Z,77.94
2022-11-05T21:12:52.221Z,77.88
2022-11-05T21:15:23.722Z,78.26
2022-11-05T21:17:52.714Z,78.30
2022-11-05T21:20:21.772Z,77.89
2022-11-05T21:22:50.460Z,78.10
2022-11-05T21:25:20.416Z,78.37
2022-11-05T21:27:49.354Z,78.63
2022-11-05T21:30:18.113Z,78.54
2022-11-05T21:32:46.783Z,78.73
2022-11-05T21:35:15.402Z,78.61
2022-11-05T21:37:45.884Z,78.47
2022-11-05T21:40:15.629Z,78.60
2022-11-05T21:42:47.217Z,78.93
2022-11-05T21:45:16.477Z,78.62
2022-11-05T21:47:45.183Z,78.74
2022-11-05T21:50:16.093Z,78.85
2022-11-05T21:53:08.578Z,78.82
2022-11-05T21:56:31.982Z,79.12
2022-11-05T21:59:20.225Z,79.00
2022-11-05T22:01:51.166Z,78.88
2022-11-05T22:04:20.692Z,78.76
2022-11-05T22:06:49.460Z,78.85
2022-11-05T22:09:18.191Z,79.04
2022-11-05T22:11:46.926Z,79.64
2022-11-05T22:14:15.632Z,79.99
2022-11-05T22:16:45.172Z,80.63
2022-11-05T22:19:14.418Z,80.56
2022-11-05T22:21:43.063Z,80.84
2022-11-05T22:24:12.063Z,80.89
2022-11-05T22:26:43.707Z,81.18
2022-11-05T22:29:13.659Z,81.55
2022-11-05T22:31:42.387Z,81.52
2022-11-05T22:34:12.016Z,81.83
2022-11-05T22:36:40.890Z,81.77
2022-11-05T22:39:12.430Z,81.27
2022-11-05T22:41:42.191Z,80.41
2022-11-05T22:44:15.326Z,79.88
2022-11-05T22:46:44.691Z,79.45
2022-11-05T22:49:14.866Z,78.53
2022-11-05T22:51:45.614Z,77.72
2022-11-05T22:54:14.733Z,77.00
2022-11-05T22:56:44.335Z,76.66
2022-11-05T22:59:15.739Z,75.99
2022-11-05T23:01:45.750Z,75.67
2022-11-05T23:04:16.136Z,75.32
2022-11-05T23:07:03.146Z,75.25
2022-11-05T23:09:53.226Z,75.06
2022-11-05T23:12:32.664Z,74.99
2022-11-05T23:15:05.759Z,74.79
2022-11-05T23:17:53.207Z,74.86
2022-11-05T23:20:42.457Z,74.72
2022-11-05T23:23:31.733Z,74.75
2022-11-05T23:26:21.230Z,74.74
2022-11-05T23:28:49.988Z,74.72
2022-11-05T23:31:37.150Z,74.72
2022-11-05T23:34:05.890Z,74.72
2022-11-05T23:36:53.237Z,74.69
2022-11-05T23:39:22.107Z,74.67
2022-11-05T23:42:09.440Z,74.51
2022-11-05T23:44:56.882Z,74.46
2022-11-05T23:47:43.972Z,74.60
2022-11-05T23:50:12.872Z,74.79
2022-11-05T23:52:41.652Z,74.68
2022-11-05T23:55:10.558Z,74.57
2022-11-05T23:57:39.651Z,74.78
